createdAt,value
2023-01-13T00:01:14.503Z,34.55
2023-01-13T00:04:17.007Z,33.92
2023-01-13T00:07:19.120Z,34.15
2023-01-13T00:10:21.566Z,39.17
2023-01-13T00:13:26.936Z,35.85
2023-01-13T00:16:29.470Z,36.67
2023-01-13T00:19:31.672Z,33.95
2023-01-13T00:22:35.344Z,36.83
2023-01-13T00:25:37.500Z,38.67
2023-01-13T00:28:40.041Z,36.58
2023-01-13T00:31:42.222Z,38.15
2023-01-13T00:34:44.657Z,36.00
2023-01-13T00:37:46.797Z,35.17
2023-01-13T00:41:07.713Z,35.10
2023-01-13T00:44:09.838Z,37.65
2023-01-13T00:47:12.243Z,35.90
2023-01-13T00:50:14.451Z,35.10
2023-01-13T00:53:17.367Z,34.38
2023-01-13T00:56:38.445Z,35.13
2023-01-13T00:59:42.029Z,35.60
2023-01-13T01:02:44.345Z,32.08
2023-01-13T01:05:46.770Z,33.58
2023-01-13T01:08:49.498Z,37.83
2023-01-13T01:11:51.918Z,37.38
2023-01-13T01:14:54.052Z,36.35
2023-01-13T01:17:56.508Z,33.95
2023-01-13T01:21:00.680Z,35.42
2023-01-13T01:24:04.454Z,37.72
2023-01-13T01:27:06.624Z,38.45
2023-01-13T01:30:09.532Z,38.42
2023-01-13T01:33:11.761Z,37.22
2023-01-13T01:36:17.242Z,33.33
2023-01-13T01:39:19.417Z,35.20
2023-01-13T01:42:41.615Z,33.72
2023-01-13T01:45:43.970Z,36.22
2023-01-13T01:48:46.567Z,35.60
2023-01-13T01:51:57.752Z,36.42
2023-01-13T01:55:09.461Z,39.95
2023-01-13T01:58:22.154Z,44.25
2023-01-13T02:01:24.740Z,36.13
2023-01-13T02:04:34.916Z,38.65
2023-01-13T02:07:40.142Z,36.53
2023-01-13T02:10:45.259Z,36.70
2023-01-13T02:13:47.413Z,37.58
2023-01-13T02:17:04.582Z,35.67
2023-01-13T02:20:12.509Z,38.10
2023-01-13T02:23:36.723Z,36.13
2023-01-13T02:26:51.083Z,39.33
2023-01-13T02:30:27.672Z,37.90
2023-01-13T02:33:46.747Z,35.25
2023-01-13T02:36:53.170Z,36.22
2023-01-13T02:39:59.678Z,37.10
2023-01-13T02:43:30.611Z,36.85
2023-01-13T02:47:02.001Z,34.72
2023-01-13T02:50:12.145Z,34.72
2023-01-13T02:53:24.570Z,34.10
2023-01-13T02:56:27.803Z,38.60
2023-01-13T02:59:31.341Z,40.22
2023-01-13T03:02:33.963Z,32.13
2023-01-13T03:05:36.691Z,33.33
2023-01-13T03:09:03.491Z,36.05
2023-01-13T03:12:32.570Z,32.60
2023-01-13T03:15:48.682Z,38.30
2023-01-13T03:19:15.887Z,36.53
2023-01-13T03:22:27.085Z,35.83
2023-01-13T03:25:36.875Z,33.97
2023-01-13T03:28:46.155Z,39.13
2023-01-13T03:32:13.697Z,37.38
2023-01-13T03:35:23.001Z,37.42
2023-01-13T03:38:41.014Z,38.75
2023-01-13T03:41:54.589Z,34.95
2023-01-13T03:45:05.358Z,35.08
2023-01-13T03:48:14.305Z,37.33
2023-01-13T03:51:19.304Z,35.17
2023-01-13T03:54:25.178Z,34.00
2023-01-13T03:57:31.688Z,34.65
2023-01-13T04:00:40.148Z,33.33
2023-01-13T04:03:45.249Z,36.53
2023-01-13T04:07:14.390Z,33.78
2023-01-13T04:10:25.230Z,35.60
2023-01-13T04:13:32.279Z,34.67
2023-01-13T04:16:37.563Z,36.15
2023-01-13T04:19:39.903Z,36.78
2023-01-13T04:22:42.399Z,35.13
2023-01-13T04:25:45.598Z,31.70
2023-01-13T04:28:48.067Z,31.73
2023-01-13T04:31:50.228Z,33.05
2023-01-13T04:34:52.749Z,29.73
2023-01-13T04:37:54.932Z,28.55
2023-01-13T04:40:57.426Z,33.70
2023-01-13T04:43:59.609Z,32.20
2023-01-13T04:47:02.743Z,34.22
2023-01-13T04:50:05.432Z,33.20
2023-01-13T04:53:08.225Z,29.00
2023-01-13T04:56:10.348Z,36.92
2023-01-13T04:59:14.032Z,31.37
2023-01-13T05:02:19.779Z,31.92
2023-01-13T05:05:22.380Z,35.70
2023-01-13T05:08:24.568Z,38.85
2023-01-13T05:11:45.535Z,34.53
2023-01-13T05:15:06.316Z,34.45
2023-01-13T05:18:09.002Z,35.72
2023-01-13T05:21:31.227Z,32.70
2023-01-13T05:24:52.162Z,35.78
2023-01-13T05:27:56.838Z,35.78
2023-01-13T05:30:59.666Z,35.38
2023-01-13T05:34:01.914Z,33.55
2023-01-13T05:37:07.855Z,31.77
2023-01-13T05:40:30.616Z,30.88
2023-01-13T05:43:34.663Z,29.25
2023-01-13T05:46:36.900Z,31.23
2023-01-13T05:49:42.116Z,28.02
2023-01-13T05:52:44.627Z,26.65
2023-01-13T05:55:47.095Z,26.92
2023-01-13T05:58:49.234Z,26.73
2023-01-13T06:01:51.631Z,27.73
2023-01-13T06:04:54.109Z,25.45
2023-01-13T06:07:57.854Z,26.42
2023-01-13T06:11:00.336Z,27.30
2023-01-13T06:14:02.639Z,26.50
2023-01-13T06:17:08.791Z,32.50
2023-01-13T06:20:12.210Z,31.73
2023-01-13T06:23:14.649Z,30.60
2023-01-13T06:26:21.192Z,31.85
2023-01-13T06:29:24.113Z,37.42
2023-01-13T06:32:31.946Z,38.95
2023-01-13T06:35:37.702Z,36.03
2023-01-13T06:38:45.351Z,37.67
2023-01-13T06:42:11.633Z,42.55
2023-01-13T06:45:14.118Z,39.58
2023-01-13T06:48:18.327Z,37.83
2023-01-13T06:51:20.782Z,40.15
2023-01-13T06:54:23.322Z,35.53
2023-01-13T06:57:25.613Z,34.90
2023-01-13T07:00:28.392Z,30.37
2023-01-13T07:03:30.546Z,30.08
2023-01-13T07:06:33.086Z,27.35
2023-01-13T07:09:35.275Z,30.48
2023-01-13T07:12:58.215Z,31.40
2023-01-13T07:16:02.810Z,31.15
2023-01-13T07:19:05.316Z,33.22
2023-01-13T07:22:07.641Z,28.75
2023-01-13T07:25:10.531Z,29.20
2023-01-13T07:28:12.883Z,29.65
2023-01-13T07:31:18.432Z,29.12
2023-01-13T07:34:20.765Z,29.42
2023-01-13T07:37:23.279Z,29.75
2023-01-13T07:40:25.564Z,29.63
2023-01-13T07:43:33.978Z,34.05
2023-01-13T07:46:37.363Z,31.33
2023-01-13T07:49:39.827Z,34.03
2023-01-13T07:52:42.059Z,30.42
2023-01-13T07:55:44.591Z,26.30
2023-01-13T07:58:50.407Z,26.30
2023-01-13T08:01:53.424Z,24.25
2023-01-13T08:04:56.061Z,24.42
2023-01-13T08:07:58.253Z,28.52
2023-01-13T08:11:02.180Z,27.25
2023-01-13T08:14:04.424Z,28.40
2023-01-13T08:17:08.567Z,30.73
2023-01-13T08:20:11.447Z,27.17
2023-01-13T08:23:13.964Z,28.80
2023-01-13T08:26:18.288Z,23.58
2023-01-13T08:29:20.749Z,24.77
2023-01-13T08:32:23.051Z,22.17
2023-01-13T08:35:25.705Z,21.83
2023-01-13T08:38:27.986Z,19.17
2023-01-13T08:41:49.162Z,17.52
2023-01-13T08:44:53.319Z,21.37
2023-01-13T08:47:55.839Z,21.05
2023-01-13T08:51:08.785Z,19.00
2023-01-13T08:54:12.229Z,20.25
2023-01-13T08:57:21.603Z,19.25
2023-01-13T09:00:24.671Z,19.65
2023-01-13T09:03:30.866Z,21.50
2023-01-13T09:06:33.461Z,19.80
2023-01-13T09:09:36.531Z,20.98
2023-01-13T09:12:58.613Z,20.60
2023-01-13T09:16:00.893Z,18.62
2023-01-13T09:19:03.516Z,23.52
2023-01-13T09:22:05.765Z,21.98
2023-01-13T09:25:08.993Z,23.77
2023-01-13T09:28:11.221Z,21.52
2023-01-13T09:31:13.993Z,22.02
2023-01-13T09:34:38.598Z,23.35
2023-01-13T09:37:41.586Z,22.87
2023-01-13T09:40:43.950Z,23.90
2023-01-13T09:43:55.848Z,25.12
2023-01-13T09:47:02.665Z,22.00
2023-01-13T09:50:14.160Z,24.23
2023-01-13T09:56:45.534Z,26.90
2023-01-13T09:59:48.370Z,26.10
2023-01-13T10:03:03.310Z,21.67
2023-01-13T10:06:13.048Z,23.38
2023-01-13T10:09:23.224Z,22.98
2023-01-13T10:12:45.127Z,26.20
2023-01-13T10:16:10.255Z,24.70
2023-01-13T10:19:35.961Z,25.23
2023-01-13T10:22:50.398Z,26.20
2023-01-13T10:26:14.253Z,24.05
2023-01-13T10:29:27.839Z,27.80
2023-01-13T10:32:30.291Z,25.80
2023-01-13T10:35:56.330Z,27.83
2023-01-13T10:39:09.550Z,26.42
2023-01-13T10:42:22.126Z,27.60
2023-01-13T10:45:25.800Z,29.50
2023-01-13T10:48:41.643Z,26.92
2023-01-13T10:51:45.284Z,25.50
2023-01-13T10:54:54.781Z,28.95
2023-01-13T10:58:05.442Z,29.10
2023-01-13T11:01:13.841Z,28.85
2023-01-13T11:04:40.600Z,27.30
2023-01-13T11:07:52.559Z,30.20
2023-01-13T11:10:57.345Z,26.52
2023-01-13T11:14:21.853Z,28.90
2023-01-13T11:17:53.525Z,29.40
2023-01-13T11:24:21.308Z,28.95
2023-01-13T11:27:35.700Z,29.48
2023-01-13T11:30:50.853Z,33.15
2023-01-13T11:34:32.863Z,35.92
2023-01-13T11:37:43.441Z,34.25
2023-01-13T11:40:50.273Z,35.90
2023-01-13T11:44:19.259Z,32.15
2023-01-13T11:47:24.611Z,34.58
2023-01-13T11:50:48.128Z,34.95
2023-01-13T11:54:08.897Z,35.03
2023-01-13T11:57:34.411Z,33.47
2023-01-13T12:00:56.116Z,37.47
2023-01-13T12:04:23.766Z,39.63
2023-01-13T12:07:58.564Z,37.70
2023-01-13T12:11:33.543Z,36.28
2023-01-13T12:15:08.523Z,36.47
2023-01-13T12:18:33.329Z,40.67
2023-01-13T12:21:49.781Z,41.15
2023-01-13T12:25:00.457Z,38.55
2023-01-13T12:28:11.799Z,37.78
2023-01-13T12:31:18.930Z,38.97
2023-01-13T12:34:34.549Z,36.53
2023-01-13T12:37:46.175Z,42.58
2023-01-13T12:41:00.019Z,39.30
2023-01-13T12:44:18.554Z,41.20
2023-01-13T12:47:45.563Z,39.67
2023-01-13T12:51:03.281Z,39.90
2023-01-13T12:54:51.210Z,41.03
2023-01-13T12:57:58.621Z,45.60
2023-01-13T13:01:11.834Z,45.60
2023-01-13T13:05:03.727Z,44.47
2023-01-13T13:08:17.665Z,46.58
2023-01-13T13:11:40.378Z,46.58
2023-01-13T13:14:42.575Z,43.85
2023-01-13T13:18:00.244Z,39.45
2023-01-13T13:21:11.489Z,40.20
2023-01-13T13:24:18.109Z,36.47
2023-01-13T13:27:40.833Z,40.85
2023-01-13T13:30:53.162Z,37.28
2023-01-13T13:34:12.416Z,36.38
2023-01-13T13:38:01.837Z,39.50
2023-01-13T13:41:43.680Z,39.80
2023-01-13T13:45:08.356Z,32.33
2023-01-13T13:48:29.236Z,37.67
2023-01-13T13:51:40.196Z,33.65
2023-01-13T13:54:49.259Z,34.08
2023-01-13T13:57:54.452Z,36.15
2023-01-13T14:00:58.204Z,34.97
2023-01-13T14:04:13.002Z,33.97
2023-01-13T14:07:22.043Z,33.38
2023-01-13T14:10:36.393Z,29.55
2023-01-13T14:13:38.602Z,32.20
2023-01-13T14:16:41.320Z,31.42
2023-01-13T14:19:47.645Z,30.90
2023-01-13T14:22:53.169Z,29.30
2023-01-13T14:26:00.710Z,30.45
2023-01-13T14:29:04.015Z,32.55
2023-01-13T14:32:07.542Z,29.92
2023-01-13T14:35:16.226Z,31.52
2023-01-13T14:38:18.447Z,30.02
2023-01-13T14:41:27.790Z,29.17
2023-01-13T14:44:36.134Z,31.33
2023-01-13T14:47:39.490Z,30.83
2023-01-13T14:50:46.755Z,30.45
2023-01-13T14:53:49.472Z,32.10
2023-01-13T14:56:55.047Z,31.83
2023-01-13T15:00:16.044Z,33.50
2023-01-13T15:03:21.744Z,29.70
2023-01-13T15:06:26.060Z,28.38
2023-01-13T15:09:33.295Z,30.65
2023-01-13T15:12:40.693Z,29.52
2023-01-13T15:15:43.002Z,32.40
2023-01-13T15:18:45.639Z,32.40
2023-01-13T15:21:47.874Z,30.73
2023-01-13T15:24:50.412Z,29.15
2023-01-13T15:27:53.306Z,35.20
2023-01-13T15:31:00.637Z,35.55
2023-01-13T15:34:02.905Z,33.92
2023-01-13T15:37:05.540Z,35.97
2023-01-13T15:40:16.064Z,34.33
2023-01-13T15:43:42.143Z,37.08
2023-01-13T15:46:45.222Z,36.70
2023-01-13T15:49:47.950Z,41.72
2023-01-13T15:52:50.184Z,43.40
2023-01-13T15:55:56.622Z,39.38
2023-01-13T15:58:58.900Z,37.17
2023-01-13T16:02:01.411Z,36.88
2023-01-13T16:05:05.131Z,39.78
2023-01-13T16:08:18.970Z,35.72
2023-01-13T16:11:21.444Z,39.28
2023-01-13T16:14:23.729Z,39.13
2023-01-13T16:17:29.868Z,40.28
2023-01-13T16:20:32.279Z,36.20
2023-01-13T16:23:34.730Z,39.20
2023-01-13T16:26:38.886Z,35.88
2023-01-13T16:29:42.003Z,38.25
2023-01-13T16:32:44.206Z,36.03
2023-01-13T16:36:11.850Z,37.63
2023-01-13T16:39:20.619Z,38.72
2023-01-13T16:42:23.212Z,37.15
2023-01-13T16:45:25.846Z,36.40
2023-01-13T16:48:28.337Z,35.83
2023-01-13T16:51:30.546Z,37.22
2023-01-13T16:54:33.130Z,35.20
2023-01-13T16:57:35.313Z,38.58
2023-01-13T17:00:37.858Z,39.03
2023-01-13T17:03:40.043Z,37.25
2023-01-13T17:06:52.820Z,37.65
2023-01-13T17:09:55.035Z,36.70
2023-01-13T17:13:00.057Z,36.58
2023-01-13T17:16:05.994Z,34.72
2023-01-13T17:19:08.571Z,34.72
2023-01-13T17:22:10.806Z,39.92
2023-01-13T17:25:14.204Z,36.78
2023-01-13T17:28:16.408Z,35.95
2023-01-13T17:31:18.963Z,35.58
2023-01-13T17:34:21.402Z,36.05
2023-01-13T17:37:23.935Z,37.85
2023-01-13T17:40:26.206Z,36.72
2023-01-13T17:43:28.667Z,41.10
2023-01-13T17:46:30.898Z,41.17
2023-01-13T17:49:33.367Z,33.53
2023-01-13T17:52:35.604Z,39.55
2023-01-13T17:55:38.051Z,33.60
2023-01-13T17:58:41.628Z,31.17
2023-01-13T18:01:44.577Z,33.88
2023-01-13T18:04:47.053Z,30.55
2023-01-13T18:07:49.179Z,31.87
2023-01-13T18:10:52.624Z,35.40
2023-01-13T18:13:56.831Z,32.88
2023-01-13T18:16:59.375Z,29.10
2023-01-13T18:20:20.374Z,30.58
2023-01-13T18:23:41.455Z,29.67
2023-01-13T18:27:02.317Z,33.35
2023-01-13T18:30:06.692Z,32.25
2023-01-13T18:33:08.902Z,29.35
2023-01-13T18:36:11.572Z,30.37
2023-01-13T18:39:13.830Z,31.30
2023-01-13T18:42:34.570Z,32.70
2023-01-13T18:45:36.755Z,33.25
2023-01-13T18:48:39.209Z,30.35
2023-01-13T18:51:41.435Z,31.75
2023-01-13T18:54:43.966Z,35.67
2023-01-13T18:57:46.494Z,31.05
2023-01-13T19:00:49.161Z,35.60
2023-01-13T19:03:59.530Z,38.60
2023-01-13T19:07:02.476Z,32.70
2023-01-13T19:10:06.230Z,39.00
2023-01-13T19:13:08.682Z,35.33
2023-01-13T19:16:11.487Z,32.65
2023-01-13T19:19:14.042Z,31.05
2023-01-13T19:22:19.726Z,34.05
2023-01-13T19:25:22.836Z,35.67
2023-01-13T19:28:25.057Z,33.83
2023-01-13T19:31:27.570Z,32.40
2023-01-13T19:34:29.836Z,31.27
2023-01-13T19:37:34.122Z,34.40
2023-01-13T19:40:36.308Z,34.70
2023-01-13T19:43:57.274Z,34.92
2023-01-13T19:46:59.517Z,29.67
2023-01-13T19:50:06.402Z,34.05
2023-01-13T19:53:15.945Z,33.70
2023-01-13T19:56:18.420Z,35.97
2023-01-13T19:59:22.216Z,34.25
2023-01-13T20:02:28.170Z,36.90
2023-01-13T20:05:31.010Z,36.83
2023-01-13T20:08:33.299Z,39.45
2023-01-13T20:11:36.387Z,33.90
2023-01-13T20:14:38.790Z,35.42
2023-01-13T20:17:41.733Z,35.20
2023-01-13T20:20:43.885Z,35.28
2023-01-13T20:23:50.540Z,38.53
2023-01-13T20:26:53.974Z,35.72
2023-01-13T20:29:56.507Z,36.53
2023-01-13T20:32:58.809Z,38.35
2023-01-13T20:36:01.523Z,33.10
2023-01-13T20:39:06.298Z,40.63
2023-01-13T20:42:28.314Z,37.38
2023-01-13T20:45:30.448Z,41.85
2023-01-13T20:48:32.934Z,43.42
2023-01-13T20:51:35.811Z,37.40
2023-01-13T20:54:39.959Z,45.90
2023-01-13T20:57:42.168Z,44.13
2023-01-13T21:00:44.643Z,45.83
2023-01-13T21:03:47.186Z,40.97
2023-01-13T21:06:49.869Z,42.55
2023-01-13T21:09:52.182Z,44.30
2023-01-13T21:13:13.077Z,39.30
2023-01-13T21:16:15.444Z,41.28
2023-01-13T21:19:19.990Z,41.85
2023-01-13T21:22:22.301Z,41.83
2023-01-13T21:25:25.083Z,45.03
2023-01-13T21:28:27.280Z,45.35
2023-01-13T21:31:29.819Z,42.88
2023-01-13T21:34:34.727Z,42.70
2023-01-13T21:37:38.279Z,44.33
2023-01-13T21:40:40.551Z,47.45
2023-01-13T21:44:01.676Z,45.17
2023-01-13T21:47:27.957Z,44.67
2023-01-13T21:50:30.522Z,43.53
2023-01-13T21:53:32.654Z,48.10
2023-01-13T21:56:35.153Z,44.25
2023-01-13T21:59:37.277Z,44.78
2023-01-13T22:02:39.870Z,45.60
2023-01-13T22:05:42.452Z,46.28
2023-01-13T22:08:44.611Z,51.08
2023-01-13T22:11:47.201Z,47.35
2023-01-13T22:14:54.136Z,52.40
2023-01-13T22:17:57.087Z,49.45
2023-01-13T22:21:02.119Z,49.67
2023-01-13T22:24:04.893Z,48.92
2023-01-13T22:27:07.599Z,51.13
2023-01-13T22:30:21.563Z,47.25
2023-01-13T22:33:23.779Z,45.45
2023-01-13T22:36:26.498Z,50.40
2023-01-13T22:39:29.032Z,46.50
2023-01-13T22:42:31.549Z,49.58
2023-01-13T22:45:33.751Z,49.20
2023-01-13T22:48:36.752Z,54.00
2023-01-13T22:51:39.473Z,50.78
2023-01-13T22:54:42.120Z,50.47
2023-01-13T22:57:48.064Z,50.60
2023-01-13T23:00:51.897Z,47.25
2023-01-13T23:03:54.469Z,51.03
2023-01-13T23:06:56.958Z,47.33
2023-01-13T23:09:59.167Z,57.10
2023-01-13T23:13:01.690Z,49.03
2023-01-13T23:16:06.490Z,56.92
2023-01-13T23:19:10.538Z,48.35
2023-01-13T23:22:13.545Z,53.47
2023-01-13T23:25:16.113Z,51.88
2023-01-13T23:28:18.301Z,51.78
2023-01-13T23:31:22.119Z,58.28
2023-01-13T23:34:24.391Z,53.05
2023-01-13T23:37:26.902Z,54.35
2023-01-13T23:40:29.109Z,56.22
2023-01-13T23:43:31.604Z,53.67
2023-01-13T23:46:35.247Z,53.08
2023-01-13T23:49:37.931Z,55.83
2023-01-13T23:52:40.072Z,50.78
2023-01-13T23:55:42.541Z,56.20
2023-01-13T23:58:45.442Z,51.60
